createdAt,value
2022-12-29T00:00:38.901Z,2.0
2022-12-29T00:05:44.992Z,2.0
2022-12-29T00:10:51.192Z,2.0
2022-12-29T00:15:57.492Z,2.0
2022-12-29T00:21:03.611Z,1.0
2022-12-29T00:26:09.927Z,1.0
2022-12-29T00:31:16.065Z,1.0
2022-12-29T00:36:22.557Z,1.0
2022-12-29T00:41:28.475Z,1.0
2022-12-29T00:46:34.720Z,0.5
2022-12-29T00:51:40.868Z,0.0
2022-12-29T00:56:47.074Z,1.0
2022-12-29T01:01:53.416Z,0.0
2022-12-29T01:06:59.485Z,1.0
2022-12-29T01:12:05.707Z,1.0
2022-12-29T01:17:11.895Z,2.0
2022-12-29T01:22:18.111Z,2.0
2022-12-29T01:27:24.362Z,2.0
2022-12-29T01:32:30.526Z,2.0
2022-12-29T01:37:36.753Z,1.0
2022-12-29T01:42:42.939Z,1.0
2022-12-29T01:47:49.149Z,2.0
2022-12-29T01:52:55.352Z,1.0
2022-12-29T01:58:01.572Z,2.0
2022-12-29T02:03:07.842Z,1.0
2022-12-29T02:08:14.009Z,1.0
2022-12-29T02:13:20.192Z,1.0
2022-12-29T02:18:26.398Z,1.5
2022-12-29T02:23:32.600Z,1.0
2022-12-29T02:28:38.806Z,1.0
2022-12-29T02:33:45.021Z,2.0
2022-12-29T02:38:51.234Z,2.0
2022-12-29T02:43:57.427Z,1.0
2022-12-29T02:49:03.637Z,1.0
2022-12-29T02:54:09.850Z,1.5
2022-12-29T02:59:16.054Z,1.0
2022-12-29T03:04:22.263Z,1.0
2022-12-29T03:09:28.573Z,2.0
2022-12-29T03:14:34.677Z,1.0
2022-12-29T03:19:40.886Z,1.0
2022-12-29T03:24:47.096Z,2.0
2022-12-29T03:29:53.315Z,2.0
2022-12-29T03:34:59.515Z,2.0
2022-12-29T03:40:05.723Z,1.0
2022-12-29T03:45:11.929Z,1.0
2022-12-29T03:50:18.141Z,1.0
2022-12-29T03:55:24.447Z,2.0
2022-12-29T04:00:30.600Z,1.0
2022-12-29T04:05:36.758Z,1.0
2022-12-29T04:10:42.973Z,2.0
2022-12-29T04:15:49.262Z,3.0
2022-12-29T04:20:55.384Z,1.0
2022-12-29T04:26:01.620Z,2.0
2022-12-29T04:31:07.885Z,3.0
2022-12-29T04:36:14.015Z,2.0
2022-12-29T04:41:20.217Z,2.0
2022-12-29T04:46:25.469Z,2.0
2022-12-29T04:51:31.644Z,2.0
2022-12-29T04:56:37.865Z,2.0
2022-12-29T05:01:44.305Z,3.0
2022-12-29T05:06:50.267Z,3.0
2022-12-29T05:11:56.503Z,2.0
2022-12-29T05:17:02.711Z,3.0
2022-12-29T05:22:08.889Z,3.0
2022-12-29T05:27:15.109Z,3.0
2022-12-29T05:32:21.318Z,3.0
2022-12-29T05:37:27.517Z,3.0
2022-12-29T05:42:33.775Z,5.0
2022-12-29T05:47:40.088Z,2.0
2022-12-29T05:52:46.134Z,2.0
2022-12-29T05:57:52.355Z,4.0
2022-12-29T06:02:58.733Z,3.0
2022-12-29T06:08:04.762Z,3.0
2022-12-29T06:13:10.973Z,3.0
2022-12-29T06:18:20.079Z,4.0
2022-12-29T06:23:23.398Z,3.0
2022-12-29T06:28:29.596Z,3.0
2022-12-29T06:33:35.819Z,3.0
2022-12-29T06:38:42.012Z,2.5
2022-12-29T06:43:48.220Z,3.0
2022-12-29T06:48:54.425Z,4.0
2022-12-29T06:54:00.651Z,3.0
2022-12-29T06:59:06.845Z,3.0
2022-12-29T07:04:13.051Z,4.0
2022-12-29T07:09:19.257Z,3.0
2022-12-29T07:14:25.469Z,3.0
2022-12-29T07:19:31.691Z,4.0
2022-12-29T07:24:37.906Z,3.0
2022-12-29T07:29:44.092Z,4.0
2022-12-29T07:34:50.304Z,5.0
2022-12-29T07:39:56.520Z,4.0
2022-12-29T07:45:02.716Z,4.0
2022-12-29T07:50:08.924Z,3.0
2022-12-29T07:55:15.137Z,4.0
2022-12-29T08:00:21.340Z,4.0
2022-12-29T08:05:27.546Z,5.0
2022-12-29T08:10:33.793Z,4.0
2022-12-29T08:15:40.032Z,6.0
2022-12-29T08:20:48.701Z,5.0
2022-12-29T08:25:52.395Z,5.0
2022-12-29T08:30:58.637Z,7.0
2022-12-29T08:36:04.793Z,4.5
2022-12-29T08:41:11.024Z,5.0
2022-12-29T08:46:17.310Z,6.0
2022-12-29T08:51:25.021Z,6.5
2022-12-29T08:56:29.638Z,6.0
2022-12-29T09:01:35.969Z,5.0
2022-12-29T09:06:42.071Z,6.0
2022-12-29T09:11:48.252Z,5.5
2022-12-29T09:16:54.451Z,6.0
2022-12-29T09:22:00.670Z,5.0
2022-12-29T09:27:06.871Z,4.0
2022-12-29T09:32:18.319Z,5.5
2022-12-29T09:37:19.290Z,4.0
2022-12-29T09:42:25.496Z,6.0
2022-12-29T09:47:31.706Z,5.0
2022-12-29T09:52:37.911Z,5.0
2022-12-29T09:57:44.134Z,4.0
2022-12-29T10:02:50.505Z,5.0
2022-12-29T10:07:56.533Z,5.0
2022-12-29T10:13:02.745Z,5.0
2022-12-29T10:18:07.964Z,5.0
2022-12-29T10:23:14.176Z,3.0
2022-12-29T10:28:20.385Z,5.0
2022-12-29T10:33:26.610Z,5.0
2022-12-29T10:38:32.808Z,4.0
2022-12-29T10:43:39.010Z,5.0
2022-12-29T10:48:44.235Z,6.0
2022-12-29T10:53:50.446Z,5.0
2022-12-29T10:58:56.650Z,4.5
2022-12-29T11:04:02.855Z,5.0
2022-12-29T11:09:09.078Z,5.0
2022-12-29T11:14:15.273Z,4.0
2022-12-29T11:19:21.483Z,6.0
2022-12-29T11:24:27.716Z,5.0
2022-12-29T11:29:33.950Z,6.0
2022-12-29T11:34:40.115Z,5.0
2022-12-29T11:39:46.317Z,5.0
2022-12-29T11:44:52.526Z,5.0
2022-12-29T11:49:58.729Z,6.0
2022-12-29T11:55:05.044Z,5.0
2022-12-29T12:00:11.146Z,7.0
2022-12-29T12:05:17.354Z,6.0
2022-12-29T12:10:23.561Z,6.0
2022-12-29T12:15:29.810Z,7.0
2022-12-29T12:20:35.985Z,6.0
2022-12-29T12:25:42.185Z,6.0
2022-12-29T12:30:48.480Z,6.0
2022-12-29T12:35:54.730Z,7.0
2022-12-29T12:41:00.818Z,7.0
2022-12-29T12:46:07.131Z,9.0
2022-12-29T12:51:13.244Z,8.0
2022-12-29T12:56:19.430Z,7.0
2022-12-29T13:01:25.736Z,7.0
2022-12-29T13:06:31.885Z,6.0
2022-12-29T13:11:38.058Z,8.0
2022-12-29T13:16:44.276Z,6.0
2022-12-29T13:21:58.736Z,5.0
2022-12-29T13:26:56.687Z,6.0
2022-12-29T13:32:02.905Z,5.5
2022-12-29T13:37:09.095Z,6.0
2022-12-29T13:42:15.311Z,5.5
2022-12-29T13:52:27.730Z,5.0
2022-12-29T13:57:33.948Z,5.0
2022-12-29T14:02:40.374Z,5.0
2022-12-29T14:07:46.399Z,6.5
2022-12-29T14:12:52.557Z,7.0
2022-12-29T14:17:58.771Z,6.0
2022-12-29T14:23:04.988Z,5.0
2022-12-29T14:28:11.189Z,5.0
2022-12-29T14:33:17.419Z,5.0
2022-12-29T14:38:23.612Z,4.0
2022-12-29T14:43:29.818Z,5.0
2022-12-29T14:48:36.016Z,7.0
2022-12-29T14:53:42.225Z,6.5
2022-12-29T14:58:48.500Z,6.0
2022-12-29T15:03:54.651Z,6.0
2022-12-29T15:09:00.873Z,7.0
2022-12-29T15:14:07.189Z,6.0
2022-12-29T15:19:19.595Z,7.0
2022-12-29T15:24:19.471Z,7.0
2022-12-29T15:29:25.678Z,6.0
2022-12-29T15:34:32.089Z,6.0
2022-12-29T15:39:38.090Z,6.0
2022-12-29T15:44:44.314Z,5.5
2022-12-29T15:49:50.508Z,5.0
2022-12-29T15:54:56.719Z,5.0
2022-12-29T16:00:03.192Z,4.0
2022-12-29T16:05:17.525Z,3.0
2022-12-29T16:10:15.344Z,3.0
2022-12-29T16:15:21.552Z,3.0
2022-12-29T16:20:26.774Z,4.0
2022-12-29T16:25:32.985Z,3.0
2022-12-29T16:30:39.275Z,2.0
2022-12-29T16:35:45.394Z,2.0
2022-12-29T16:40:51.620Z,3.0
2022-12-29T16:45:57.847Z,3.0
2022-12-29T16:51:04.067Z,4.0
2022-12-29T16:56:10.235Z,4.0
2022-12-29T17:01:16.454Z,3.0
2022-12-29T17:06:22.644Z,3.0
2022-12-29T17:11:28.851Z,3.0
2022-12-29T17:16:35.056Z,4.0
2022-12-29T17:21:41.286Z,4.5
2022-12-29T17:26:47.483Z,5.0
2022-12-29T17:31:53.680Z,5.0
2022-12-29T17:36:59.901Z,3.0
2022-12-29T17:42:06.095Z,4.0
2022-12-29T17:47:12.323Z,4.0
2022-12-29T17:52:18.508Z,4.0
2022-12-29T17:57:24.743Z,5.0
2022-12-29T18:02:31.199Z,5.0
2022-12-29T18:07:37.135Z,6.0
2022-12-29T18:12:43.337Z,7.0
2022-12-29T18:17:49.555Z,7.0
2022-12-29T18:22:55.758Z,6.5
2022-12-29T18:28:01.970Z,6.5
2022-12-29T18:33:08.275Z,7.0
2022-12-29T18:38:14.385Z,6.0
2022-12-29T18:43:20.607Z,5.0
2022-12-29T18:48:26.798Z,5.0
2022-12-29T18:53:33.012Z,10.0
2022-12-29T18:58:39.218Z,7.0
2022-12-29T19:03:45.419Z,10.0
2022-12-29T19:08:51.721Z,8.0
2022-12-29T19:13:57.970Z,9.0
2022-12-29T19:19:09.301Z,7.0
2022-12-29T19:24:10.262Z,8.5
2022-12-29T19:29:16.482Z,10.0
2022-12-29T19:34:22.772Z,10.0
2022-12-29T19:39:28.874Z,11.0
2022-12-29T19:44:35.083Z,9.0
2022-12-29T19:49:41.294Z,8.0
2022-12-29T19:54:47.496Z,8.0
2022-12-29T19:59:53.707Z,10.0
2022-12-29T20:04:59.912Z,9.0
2022-12-29T20:10:06.137Z,9.0
2022-12-29T20:15:12.337Z,9.0
2022-12-29T20:20:18.538Z,8.0
2022-12-29T20:30:30.961Z,11.0
2022-12-29T20:35:37.231Z,8.5
2022-12-29T20:40:46.641Z,9.0
2022-12-29T20:45:49.704Z,8.0
2022-12-29T20:50:55.792Z,9.0
2022-12-29T20:56:02.020Z,8.0
2022-12-29T21:01:08.247Z,9.0
2022-12-29T21:06:14.428Z,10.0
2022-12-29T21:11:20.619Z,8.0
2022-12-29T21:16:26.915Z,7.0
2022-12-29T21:21:33.038Z,8.0
2022-12-29T21:26:39.244Z,7.0
2022-12-29T21:31:45.465Z,8.5
2022-12-29T21:36:51.653Z,8.0
2022-12-29T21:41:57.854Z,8.0
2022-12-29T21:47:04.201Z,7.0
2022-12-29T21:52:09.291Z,6.0
2022-12-29T21:57:19.453Z,6.0
2022-12-29T22:02:22.009Z,8.5
2022-12-29T22:07:27.907Z,7.0
2022-12-29T22:12:34.138Z,7.0
2022-12-29T22:17:48.561Z,7.5
2022-12-29T22:22:46.539Z,9.0
2022-12-29T22:27:58.582Z,8.0
2022-12-29T22:32:58.973Z,7.0
2022-12-29T22:38:05.159Z,9.0
2022-12-29T22:43:13.219Z,9.0
2022-12-29T22:48:17.571Z,9.0
2022-12-29T22:53:23.779Z,7.5
2022-12-29T22:58:30.023Z,6.0
2022-12-29T23:03:36.287Z,10.0
2022-12-29T23:08:42.398Z,6.5
2022-12-29T23:13:48.613Z,6.0
2022-12-29T23:18:54.820Z,7.0
2022-12-29T23:24:01.023Z,7.0
2022-12-29T23:29:07.230Z,8.0
2022-12-29T23:34:13.440Z,8.0
2022-12-29T23:39:19.652Z,8.0
2022-12-29T23:44:25.853Z,7.5
2022-12-29T23:49:32.073Z,6.0
2022-12-29T23:54:38.270Z,7.0
2022-12-29T23:59:44.548Z,7.0
